Time;durP1;ratioP1;P1;durP2;ratioP2;P2;SDS_P1;SDS_P2;PMS_P1;PMS_P2;Temp;Humidity;BMP_temperature;BMP_pressure;BME280_temperature;BME280_humidity;BME280_pressure;Samples;Min_cycle;Max_cycle;Signal;HPM_P1;HPM_P2
2023/08/03 00:01:38;;;;;;;;;;;;;;;15.06;100.00;98818.75;5030575;28;19908;-61
2023/08/03 00:04:03;;;;;;;;;;;;;;;15.05;100.00;98825.72;5030201;28;19913;-61
2023/08/03 00:06:29;;;;;;;;;;;;;;;15.07;100.00;98829.19;5030135;28;19963;-61
2023/08/03 00:08:54;;;;;;;;;;;;;;;15.10;100.00;98825.63;5030090;28;19909;-61
2023/08/03 00:11:19;;;;;;;;;;;;;;;15.11;100.00;98823.00;5030148;28;19916;-61
2023/08/03 00:13:44;;;;;;;;;;;;;;;15.12;100.00;98832.56;5029622;28;19920;-60
2023/08/03 00:16:09;;;;;;;;;;;;;;;15.13;100.00;98825.56;5030026;28;19913;-62
2023/08/03 00:18:35;;;;;;;;;;;;;;;15.10;100.00;98829.09;5028483;28;19991;-61
2023/08/03 00:21:00;;;;;;;;;;;;;;;15.12;100.00;98831.69;5029495;28;19913;-60
2023/08/03 00:23:25;;;;;;;;;;;;;;;15.15;100.00;98831.63;5029758;28;20319;-60
2023/08/03 00:25:50;;;;;;;;;;;;;;;15.18;100.00;98838.53;5029193;28;19975;-62
2023/08/03 00:28:17;;;;;;;;;;;;;;;15.17;100.00;98836.81;5029565;28;19948;-61
2023/08/03 00:30:42;;;;;;;;;;;;;;;15.17;100.00;98839.41;5030030;28;19913;-60
2023/08/03 00:33:07;;;;;;;;;;;;;;;15.16;100.00;98849.00;5029847;28;20320;-61
2023/08/03 00:35:33;;;;;;;;;;;;;;;15.16;100.00;98858.56;5029461;28;19909;-60
2023/08/03 00:37:58;;;;;;;;;;;;;;;15.17;100.00;98857.66;5028985;28;20254;-61
2023/08/03 00:40:23;;;;;;;;;;;;;;;15.21;100.00;98869.78;5030338;28;19905;-60
2023/08/03 00:42:48;;;;;;;;;;;;;;;15.23;100.00;98870.63;5030154;28;19909;-60
2023/08/03 00:45:14;;;;;;;;;;;;;;;15.21;100.00;98875.88;5029588;28;20452;-61
2023/08/03 00:47:39;;;;;;;;;;;;;;;15.25;100.00;98885.34;5029077;28;19909;-61
2023/08/03 00:50:05;;;;;;;;;;;;;;;15.26;100.00;98891.41;5029384;28;19920;-61
2023/08/03 00:52:32;;;;;;;;;;;;;;;15.28;100.00;98897.47;5028764;28;20007;-61
2023/08/03 00:54:57;;;;;;;;;;;;;;;15.25;100.00;98907.97;5028894;28;19936;-61
2023/08/03 00:57:22;;;;;;;;;;;;;;;15.26;100.00;98909.69;5029550;28;20357;-61
2023/08/03 00:59:48;;;;;;;;;;;;;;;15.27;100.00;98908.81;5028510;28;19959;-60
2023/08/03 01:02:13;;;;;;;;;;;;;;;15.30;100.00;98916.56;5029012;28;20008;-60
2023/08/03 01:04:38;;;;;;;;;;;;;;;15.31;100.00;98923.50;5029245;28;19909;-61
2023/08/03 01:07:03;;;;;;;;;;;;;;;15.33;100.00;98929.56;5028870;28;19916;-60
2023/08/03 01:09:29;;;;;;;;;;;;;;;15.35;100.00;98932.13;5029157;28;19913;-60
2023/08/03 01:11:54;;;;;;;;;;;;;;;15.35;100.00;98943.44;5029044;28;19914;-61
2023/08/03 01:14:19;;;;;;;;;;;;;;;15.33;100.00;98929.56;5028117;28;19909;-61
2023/08/03 01:16:44;;;;;;;;;;;;;;;15.33;100.00;98945.22;5029087;28;20255;-61
2023/08/03 01:19:12;;;;;;;;;;;;;;;15.35;100.00;98948.66;5029189;28;19912;-60
2023/08/03 01:21:38;;;;;;;;;;;;;;;15.31;100.00;98946.97;5028460;28;19912;-62
2023/08/03 01:24:03;;;;;;;;;;;;;;;15.33;100.00;98949.56;5028607;28;19909;-61
2023/08/03 01:26:28;;;;;;;;;;;;;;;15.31;100.00;98948.75;5027967;28;19971;-61
2023/08/03 01:28:53;;;;;;;;;;;;;;;15.33;100.00;98960.00;5028441;28;20312;-61
2023/08/03 01:31:19;;;;;;;;;;;;;;;15.32;100.00;98953.94;5028385;28;19912;-61
2023/08/03 01:33:44;;;;;;;;;;;;;;;15.32;100.00;98967.00;5028728;28;19913;-60
2023/08/03 01:36:09;;;;;;;;;;;;;;;15.32;100.00;98971.34;5028196;28;19909;-60
2023/08/03 01:38:34;;;;;;;;;;;;;;;15.33;100.00;98960.88;5028346;28;20384;-61
2023/08/03 01:40:59;;;;;;;;;;;;;;;15.33;100.00;98968.69;5028297;28;19916;-61
2023/08/03 01:43:25;;;;;;;;;;;;;;;15.32;100.00;98972.22;5027753;28;19909;-61
2023/08/03 01:45:50;;;;;;;;;;;;;;;15.32;100.00;98969.59;5028839;28;19912;-60
2023/08/03 01:48:15;;;;;;;;;;;;;;;15.34;100.00;98970.41;5028344;28;19909;-61
2023/08/03 01:50:40;;;;;;;;;;;;;;;15.36;100.00;98973.84;5028063;28;19925;-61
2023/08/03 01:53:05;;;;;;;;;;;;;;;15.33;100.00;98973.91;5028430;28;19909;-60
2023/08/03 01:55:31;;;;;;;;;;;;;;;15.35;100.00;98969.53;5028600;28;19936;-61
2023/08/03 01:57:57;;;;;;;;;;;;;;;15.35;100.00;98977.38;5027920;28;20006;-61
2023/08/03 02:00:24;;;;;;;;;;;;;;;15.31;100.00;98962.63;5028180;28;19909;-61
2023/08/03 02:02:50;;;;;;;;;;;;;;;15.32;100.00;98969.59;5028192;28;19909;-60
2023/08/03 02:05:16;;;;;;;;;;;;;;;15.32;100.00;98974.81;5028094;28;20273;-61
2023/08/03 02:07:46;;;;;;;;;;;;;;;15.31;100.00;98977.47;5028449;28;19909;-61
2023/08/03 02:10:11;;;;;;;;;;;;;;;15.30;100.00;98981.81;5028017;28;19917;-60
2023/08/03 02:12:37;;;;;;;;;;;;;;;15.27;100.00;98971.44;5028532;28;20411;-62
2023/08/03 02:15:03;;;;;;;;;;;;;;;15.28;100.00;98980.09;5028373;28;20292;-61
2023/08/03 02:17:28;;;;;;;;;;;;;;;15.24;100.00;98981.91;5028339;28;20003;-61
2023/08/03 02:19:54;;;;;;;;;;;;;;;15.20;100.00;98977.63;5028329;28;20028;-60
2023/08/03 02:22:19;;;;;;;;;;;;;;;15.23;100.00;98980.19;5027615;28;19909;-60
2023/08/03 02:24:44;;;;;;;;;;;;;;;15.22;100.00;98979.31;5027829;28;19967;-61
2023/08/03 02:27:10;;;;;;;;;;;;;;;15.22;100.00;98978.44;5028319;28;19909;-61
2023/08/03 02:29:35;;;;;;;;;;;;;;;15.22;100.00;98968.00;5027810;28;19975;-61
2023/08/03 02:32:00;;;;;;;;;;;;;;;15.25;100.00;98983.63;5027829;28;19958;-60
2023/08/03 02:34:25;;;;;;;;;;;;;;;15.22;100.00;98973.22;5027912;28;19909;-61
2023/08/03 02:36:50;;;;;;;;;;;;;;;15.24;100.00;98968.84;5026927;28;19936;-61
2023/08/03 02:39:15;;;;;;;;;;;;;;;15.25;100.00;98974.03;5028027;28;19913;-61
2023/08/03 02:41:41;;;;;;;;;;;;;;;15.23;100.00;98968.00;5027897;28;20304;-61
2023/08/03 02:44:06;;;;;;;;;;;;;;;15.20;100.00;98988.06;5018911;28;19960;-60
2023/08/03 02:46:32;;;;;;;;;;;;;;;15.21;100.00;98967.19;5008070;28;20342;-60
2023/08/03 02:48:58;;;;;;;;;;;;;;;15.20;100.00;98960.22;5008394;28;19909;-61
2023/08/03 02:51:24;;;;;;;;;;;;;;;15.21;100.00;98972.41;5008192;28;20005;-61
2023/08/03 02:53:49;;;;;;;;;;;;;;;15.20;100.00;98970.66;5007889;28;20377;-60
2023/08/03 02:56:14;;;;;;;;;;;;;;;15.18;100.00;98961.16;5009036;28;19909;-61
2023/08/03 02:58:39;;;;;;;;;;;;;;;15.12;100.00;98973.41;5011566;28;19913;-61
2023/08/03 03:01:05;;;;;;;;;;;;;;;15.18;100.00;98976.81;5011676;28;19909;-60
2023/08/03 03:03:30;;;;;;;;;;;;;;;15.19;100.00;98983.72;5011156;28;19910;-61
2023/08/03 03:05:55;;;;;;;;;;;;;;;15.20;100.00;98980.25;5011716;28;19935;-60
2023/08/03 03:08:20;;;;;;;;;;;;;;;15.20;100.00;98993.28;5011531;28;20158;-61
2023/08/03 03:10:45;;;;;;;;;;;;;;;15.19;100.00;98986.34;5011135;28;19913;-61
2023/08/03 03:13:11;;;;;;;;;;;;;;;15.18;100.00;98987.22;5011407;28;20314;-60
2023/08/03 03:15:36;;;;;;;;;;;;;;;15.20;100.00;98998.50;5011366;28;20377;-60
2023/08/03 03:18:01;;;;;;;;;;;;;;;15.11;100.00;99002.97;5010924;28;19920;-60
2023/08/03 03:20:26;;;;;;;;;;;;;;;15.12;100.00;99004.72;5011150;28;19913;-60
2023/08/03 03:22:51;;;;;;;;;;;;;;;15.16;100.00;99002.03;5010774;28;19916;-60
2023/08/03 03:25:17;;;;;;;;;;;;;;;15.18;100.00;99005.50;5011013;28;19918;-61
2023/08/03 03:27:42;;;;;;;;;;;;;;;15.15;100.00;99005.56;5011183;28;20274;-60
2023/08/03 03:30:07;;;;;;;;;;;;;;;15.10;100.00;99006.47;5010916;28;19913;-60
2023/08/03 03:32:32;;;;;;;;;;;;;;;15.09;100.00;98999.53;5010482;28;19916;-61
2023/08/03 03:34:58;;;;;;;;;;;;;;;15.10;100.00;99011.69;5011271;28;19913;-61
2023/08/03 03:37:23;;;;;;;;;;;;;;;15.09;100.00;99009.13;5011052;28;19913;-61
2023/08/03 03:39:48;;;;;;;;;;;;;;;15.04;100.00;99027.44;5010747;28;20499;-61
2023/08/03 03:42:13;;;;;;;;;;;;;;;15.04;100.00;99022.22;5010669;28;20361;-61
2023/08/03 03:44:38;;;;;;;;;;;;;;;15.04;100.00;99026.59;5010320;28;19971;-61
2023/08/03 03:47:04;;;;;;;;;;;;;;;15.04;100.00;99031.81;5010748;28;19909;-61
2023/08/03 03:49:29;;;;;;;;;;;;;;;15.03;100.00;99043.97;5010652;28;19914;-60
2023/08/03 03:51:54;;;;;;;;;;;;;;;15.07;100.00;99034.34;5010827;28;20354;-60
2023/08/03 03:54:20;;;;;;;;;;;;;;;15.09;100.00;99030.81;5009787;28;19920;-60
2023/08/03 03:56:45;;;;;;;;;;;;;;;15.07;100.00;99047.41;5010665;28;19921;-60
2023/08/03 03:59:10;;;;;;;;;;;;;;;15.07;100.00;99055.22;5010548;28;20369;-61
2023/08/03 04:01:35;;;;;;;;;;;;;;;15.08;100.00;99068.25;5010790;28;19921;-60
2023/08/03 04:04:00;;;;;;;;;;;;;;;15.06;100.00;99062.19;5004021;28;19918;-61
2023/08/03 04:06:25;;;;;;;;;;;;;;;15.07;100.00;99069.13;5009615;28;19916;-61
2023/08/03 04:08:51;;;;;;;;;;;;;;;15.08;100.00;99065.63;5010513;28;20289;-61
2023/08/03 04:11:16;;;;;;;;;;;;;;;15.07;100.00;99074.34;5009924;28;19963;-60
2023/08/03 04:13:41;;;;;;;;;;;;;;;15.06;100.00;99077.81;5008971;28;20246;-61
2023/08/03 04:16:06;;;;;;;;;;;;;;;15.05;100.00;99081.34;5009224;28;19909;-62
2023/08/03 04:18:31;;;;;;;;;;;;;;;15.03;100.00;99087.44;5008404;28;19959;-60
2023/08/03 04:20:57;;;;;;;;;;;;;;;15.03;100.00;99077.00;5008285;28;20000;-61
2023/08/03 04:23:22;;;;;;;;;;;;;;;15.00;100.00;99084.00;5008378;28;19910;-60
2023/08/03 04:25:47;;;;;;;;;;;;;;;14.99;100.00;99091.84;5008425;28;20369;-62
2023/08/03 04:28:12;;;;;;;;;;;;;;;14.99;100.00;99091.84;5008340;28;19936;-60
2023/08/03 04:30:37;;;;;;;;;;;;;;;14.99;100.00;99099.66;5007781;28;20288;-60
2023/08/03 04:33:03;;;;;;;;;;;;;;;15.01;100.00;99108.34;5008782;28;20004;-60
2023/08/03 04:35:28;;;;;;;;;;;;;;;15.01;100.00;99105.72;5009940;28;19910;-61
2023/08/03 04:37:53;;;;;;;;;;;;;;;15.01;100.00;99116.16;5009918;28;20004;-61
2023/08/03 04:40:18;;;;;;;;;;;;;;;15.05;100.00;99120.47;5009433;28;19916;-60
2023/08/03 04:42:43;;;;;;;;;;;;;;;15.07;100.00;99133.47;5008524;28;20361;-60
2023/08/03 04:45:09;;;;;;;;;;;;;;;15.09;100.00;99136.94;5007855;28;19915;-60
2023/08/03 04:47:34;;;;;;;;;;;;;;;15.09;100.00;99140.38;5009440;28;20265;-61
2023/08/03 04:49:59;;;;;;;;;;;;;;;15.09;100.00;99140.38;5008949;28;20000;-60
2023/08/03 04:52:24;;;;;;;;;;;;;;;15.08;100.00;99141.28;5009828;28;20031;-61
2023/08/03 04:54:49;;;;;;;;;;;;;;;15.10;100.00;99138.63;5009803;28;20285;-60
2023/08/03 04:57:15;;;;;;;;;;;;;;;15.11;100.00;99154.25;5009434;28;19913;-60
2023/08/03 04:59:40;;;;;;;;;;;;;;;15.13;100.00;99151.63;5009765;28;19959;-61
2023/08/03 05:02:06;;;;;;;;;;;;;;;15.12;100.00;99156.00;5009587;28;19909;-60
2023/08/03 05:04:31;;;;;;;;;;;;;;;15.13;100.00;99156.84;5009214;28;19920;-61
2023/08/03 05:06:56;;;;;;;;;;;;;;;15.12;100.00;99152.53;5009484;28;19909;-61
2023/08/03 05:09:21;;;;;;;;;;;;;;;15.11;100.00;99154.25;5009200;28;19917;-60
2023/08/03 05:11:46;;;;;;;;;;;;;;;15.12;100.00;99160.34;5009337;28;19952;-60
2023/08/03 05:14:11;;;;;;;;;;;;;;;15.12;100.00;99171.66;5008938;28;19909;-61
2023/08/03 05:16:37;;;;;;;;;;;;;;;15.15;100.00;99175.13;5009427;28;19913;-61
2023/08/03 05:19:02;;;;;;;;;;;;;;;15.17;100.00;99178.53;5008702;28;20015;-60
2023/08/03 05:21:27;;;;;;;;;;;;;;;15.19;100.00;99176.78;5008984;28;19974;-60
2023/08/03 05:23:52;;;;;;;;;;;;;;;15.23;100.00;99199.34;5009046;28;19913;-60
2023/08/03 05:26:17;;;;;;;;;;;;;;;15.24;100.00;99206.28;5008753;28;19921;-61
2023/08/03 05:28:42;;;;;;;;;;;;;;;15.28;100.00;99207.97;5009024;28;19992;-60
2023/08/03 05:31:08;;;;;;;;;;;;;;;15.29;100.00;99201.84;5008947;28;19959;-61
2023/08/03 05:33:35;;;;;;;;;;;;;;;15.28;100.00;99207.09;5009258;28;19913;-61
2023/08/03 05:36:00;;;;;;;;;;;;;;;15.30;100.00;99205.34;5008582;28;20328;-62
2023/08/03 05:38:25;;;;;;;;;;;;;;;15.28;100.00;99223.63;5008865;28;20634;-60
2023/08/03 05:40:51;;;;;;;;;;;;;;;15.28;100.00;99215.81;5008956;28;19920;-60
2023/08/03 05:43:16;;;;;;;;;;;;;;;15.31;100.00;99226.19;5008692;28;20308;-60
2023/08/03 05:45:43;;;;;;;;;;;;;;;15.32;100.00;99230.53;5008429;28;19960;-60
2023/08/03 05:48:13;;;;;;;;;;;;;;;15.34;100.00;99233.97;5008819;28;19909;-60
2023/08/03 05:50:40;;;;;;;;;;;;;;;15.36;100.00;99239.19;5008787;28;19921;-62
2023/08/03 05:53:06;;;;;;;;;;;;;;;15.38;100.00;99239.16;5008559;28;19913;-61
2023/08/03 05:55:32;;;;;;;;;;;;;;;15.38;100.00;99249.59;5009302;28;20274;-60
2023/08/03 05:57:57;;;;;;;;;;;;;;;15.40;100.00;99258.28;5008516;28;19913;-61
2023/08/03 06:00:22;;;;;;;;;;;;;;;15.41;100.00;99265.22;5008811;28;19909;-60
2023/08/03 06:02:47;;;;;;;;;;;;;;;15.40;100.00;99258.28;5008371;28;19909;-61
2023/08/03 06:05:31;;;;;;;;;;;;;;;15.41;100.00;99270.44;5008851;28;20340;-61
2023/08/03 06:07:57;;;;;;;;;;;;;;;15.39;100.00;99269.59;5008341;28;19984;-61
2023/08/03 06:10:22;;;;;;;;;;;;;;;15.39;100.00;99272.19;5008464;28;19913;-60
2023/08/03 06:12:47;;;;;;;;;;;;;;;15.39;100.00;99274.81;5008554;28;19910;-61
2023/08/03 06:15:12;;;;;;;;;;;;;;;15.41;100.00;99291.31;5008683;28;19917;-60
2023/08/03 06:17:37;;;;;;;;;;;;;;;15.44;100.00;99280.81;5008330;28;20369;-60
2023/08/03 06:20:11;;;;;;;;;;;;;;;15.44;100.00;99284.31;5008373;28;20324;-61
2023/08/03 06:22:36;;;;;;;;;;;;;;;15.45;100.00;99285.19;5008895;28;19990;-60
2023/08/03 06:25:02;;;;;;;;;;;;;;;15.46;100.00;99294.72;5007696;28;19940;-61
2023/08/03 06:27:27;;;;;;;;;;;;;;;15.47;100.00;99296.47;5008301;28;20370;-60
2023/08/03 06:29:52;;;;;;;;;;;;;;;15.49;100.00;99303.38;5009365;28;20353;-60
2023/08/03 06:32:23;;;;;;;;;;;;;;;15.51;100.00;99297.28;5011981;28;19917;-61
2023/08/03 06:34:49;;;;;;;;;;;;;;;15.52;100.00;99302.50;5011871;28;19909;-60
2023/08/03 06:37:14;;;;;;;;;;;;;;;15.54;100.00;99303.31;5012573;28;19992;-60
2023/08/03 06:39:39;;;;;;;;;;;;;;;15.55;100.00;99305.06;5012275;28;19948;-60
2023/08/03 06:42:05;;;;;;;;;;;;;;;15.49;100.00;99311.22;5011997;28;20454;-61
2023/08/03 06:44:31;;;;;;;;;;;;;;;15.51;100.00;99324.25;5011403;28;19917;-60
2023/08/03 06:46:56;;;;;;;;;;;;;;;15.46;100.00;99326.03;5012087;28;19920;-61
2023/08/03 06:49:22;;;;;;;;;;;;;;;15.46;100.00;99341.72;5011727;28;19913;-62
2023/08/03 06:51:48;;;;;;;;;;;;;;;15.49;100.00;99337.31;5011936;28;19910;-61
2023/08/03 06:54:13;;;;;;;;;;;;;;;15.53;100.00;99338.13;5011338;28;19909;-61
2023/08/03 06:56:38;;;;;;;;;;;;;;;15.54;100.00;99336.41;5012035;28;19909;-60
2023/08/03 06:59:03;;;;;;;;;;;;;;;15.54;100.00;99350.28;5011706;28;19909;-61
2023/08/03 07:01:28;;;;;;;;;;;;;;;15.58;100.00;99344.16;5011947;28;20198;-61
2023/08/03 07:03:54;;;;;;;;;;;;;;;15.63;100.00;99354.56;5012036;28;19913;-60
2023/08/03 07:06:19;;;;;;;;;;;;;;;15.66;100.00;99353.66;5011973;28;19917;-60
2023/08/03 07:08:44;;;;;;;;;;;;;;;15.71;100.00;99350.09;5011572;28;19913;-61
2023/08/03 07:11:09;;;;;;;;;;;;;;;15.77;100.00;99361.34;5011402;28;19913;-60
2023/08/03 07:13:34;;;;;;;;;;;;;;;15.79;100.00;99370.91;5011500;28;20095;-60
2023/08/03 07:16:09;;;;;;;;;;;;;;;15.75;100.00;99369.19;5011253;28;19909;-61
2023/08/03 07:18:34;;;;;;;;;;;;;;;15.79;100.00;99381.34;5011221;28;20012;-61
2023/08/03 07:21:02;;;;;;;;;;;;;;;15.87;100.00;99382.97;5011594;28;20012;-60
2023/08/03 07:23:28;;;;;;;;;;;;;;;16.00;100.00;99376.75;5011239;28;19913;-61
2023/08/03 07:25:53;;;;;;;;;;;;;;;16.14;100.00;99381.75;5011107;28;19918;-60
2023/08/03 07:28:18;;;;;;;;;;;;;;;16.26;100.00;99379.88;5011154;28;20157;-60
2023/08/03 07:30:43;;;;;;;;;;;;;;;16.29;100.00;99385.91;5010801;28;20304;-61
2023/08/03 07:33:08;;;;;;;;;;;;;;;16.34;100.00;99388.44;5011207;28;19909;-61
2023/08/03 07:35:36;;;;;;;;;;;;;;;16.38;100.00;99398.00;5010967;28;19913;-61
2023/08/03 07:38:01;;;;;;;;;;;;;;;16.37;100.00;99396.25;5011167;28;19914;-61
2023/08/03 07:40:26;;;;;;;;;;;;;;;16.41;100.00;99399.66;5011035;28;19917;-61
2023/08/03 07:42:52;;;;;;;;;;;;;;;16.43;100.00;99388.31;5010366;28;20162;-61
2023/08/03 07:45:17;;;;;;;;;;;;;;;16.46;100.00;99397.84;5010527;28;19920;-61
2023/08/03 07:47:42;;;;;;;;;;;;;;;16.43;100.00;99400.53;5010821;28;19914;-61
2023/08/03 07:50:07;;;;;;;;;;;;;;;16.45;100.00;99406.59;5010981;28;19929;-61
2023/08/03 07:52:33;;;;;;;;;;;;;;;16.41;100.00;99417.97;5010636;28;19956;-60
2023/08/03 07:54:58;;;;;;;;;;;;;;;16.36;100.00;99419.78;5010752;28;19909;-61
2023/08/03 07:57:24;;;;;;;;;;;;;;;16.33;100.00;99424.16;5010687;28;20028;-61
2023/08/03 07:59:49;;;;;;;;;;;;;;;16.29;100.00;99406.81;5010559;28;19909;-60
2023/08/03 08:02:15;;;;;;;;;;;;;;;16.27;100.00;99429.50;5010814;28;19916;-61
2023/08/03 08:04:40;;;;;;;;;;;;;;;16.27;100.00;99433.84;5010454;28;19916;-61
2023/08/03 08:07:05;;;;;;;;;;;;;;;16.24;100.00;99454.81;5010162;28;19913;-60
2023/08/03 08:09:31;;;;;;;;;;;;;;;16.19;100.00;99452.28;5010384;28;19976;-61
2023/08/03 08:11:56;;;;;;;;;;;;;;;16.19;100.00;99462.72;5010883;28;20429;-61
2023/08/03 08:14:21;;;;;;;;;;;;;;;16.13;100.00;99462.78;5009868;28;19963;-61
2023/08/03 08:16:46;;;;;;;;;;;;;;;16.12;100.00;99456.69;5010260;28;20346;-61
2023/08/03 08:19:11;;;;;;;;;;;;;;;16.12;100.00;99468.91;5010060;28;20433;-61
2023/08/03 08:21:36;;;;;;;;;;;;;;;16.10;100.00;99463.69;5010290;28;19909;-61
2023/08/03 08:24:02;;;;;;;;;;;;;;;16.07;100.00;99469.81;5010150;28;19961;-61
2023/08/03 08:26:28;;;;;;;;;;;;;;;16.11;100.00;99475.00;5009732;28;19937;-61
2023/08/03 08:28:56;;;;;;;;;;;;;;;16.11;100.00;99491.56;5009848;28;19909;-61
2023/08/03 08:31:22;;;;;;;;;;;;;;;16.11;100.00;99496.78;5010268;28;19999;-60
2023/08/03 08:33:47;;;;;;;;;;;;;;;16.20;100.00;99496.69;5010156;28;19995;-61
2023/08/03 08:36:12;;;;;;;;;;;;;;;16.23;100.00;99500.97;5009865;28;19910;-61
2023/08/03 08:38:37;;;;;;;;;;;;;;;16.24;100.00;99505.34;5010039;28;19915;-61
2023/08/03 08:41:03;;;;;;;;;;;;;;;16.17;100.00;99514.13;5009622;28;19909;-60
2023/08/03 08:43:28;;;;;;;;;;;;;;;16.18;100.00;99514.13;5010073;28;19959;-60
2023/08/03 08:45:54;;;;;;;;;;;;;;;16.14;100.00;99517.66;5009951;28;20063;-60
2023/08/03 08:48:19;;;;;;;;;;;;;;;16.05;100.00;99522.97;5008302;28;20361;-61
2023/08/03 08:50:45;;;;;;;;;;;;;;;16.07;100.00;99529.91;5009576;28;19914;-61
2023/08/03 08:53:12;;;;;;;;;;;;;;;16.08;100.00;99528.19;5009525;28;19913;-61
2023/08/03 08:55:38;;;;;;;;;;;;;;;16.08;100.00;99536.88;5009132;28;20009;-60
2023/08/03 08:58:03;;;;;;;;;;;;;;;16.07;100.00;99535.16;5009507;28;19910;-60
2023/08/03 09:00:28;;;;;;;;;;;;;;;16.08;100.00;99538.63;5009858;28;20377;-60
2023/08/03 09:02:59;;;;;;;;;;;;;;;16.07;100.00;99545.59;5009724;28;20369;-61
2023/08/03 09:05:24;;;;;;;;;;;;;;;16.08;100.00;99559.53;5009908;28;20293;-61
2023/08/03 09:08:08;;;;;;;;;;;;;;;16.08;100.00;99560.38;5009783;28;19913;-60
2023/08/03 09:10:47;;;;;;;;;;;;;;;16.08;100.00;99565.59;5008738;28;19960;-60
2023/08/03 09:13:24;;;;;;;;;;;;;;;16.05;100.00;99575.22;5008971;28;19920;-61
2023/08/03 09:15:49;;;;;;;;;;;;;;;16.07;100.00;99578.69;5009207;28;19964;-61
2023/08/03 09:18:15;;;;;;;;;;;;;;;16.03;100.00;99588.31;5009003;28;19913;-61
2023/08/03 09:20:41;;;;;;;;;;;;;;;16.04;100.00;99590.06;5009033;28;19913;-60
2023/08/03 09:23:06;;;;;;;;;;;;;;;16.04;100.00;99600.50;5024553;28;19920;-61
2023/08/03 09:25:31;;;;;;;;;;;;;;;16.07;100.00;99602.22;5009093;28;19968;-61
2023/08/03 09:27:56;;;;;;;;;;;;;;;16.10;100.00;99603.94;5009152;28;20009;-61
2023/08/03 09:30:22;;;;;;;;;;;;;;;16.15;100.00;99605.63;5009082;28;20003;-60
2023/08/03 09:32:47;;;;;;;;;;;;;;;16.24;100.00;99614.22;5008210;28;20418;-61
2023/08/03 09:35:22;;;;;;;;;;;;;;;16.24;100.00;99617.72;5008757;28;19952;-60
2023/08/03 09:37:49;;;;;;;;;;;;;;;16.27;100.00;99627.25;5008873;28;19909;-60
2023/08/03 09:40:17;;;;;;;;;;;;;;;16.28;100.00;99635.06;5009140;28;19963;-60
2023/08/03 09:42:42;;;;;;;;;;;;;;;16.30;100.00;99643.78;5008976;28;20020;-61
2023/08/03 09:45:08;;;;;;;;;;;;;;;16.31;100.00;99645.53;5008206;28;19960;-61
2023/08/03 09:47:36;;;;;;;;;;;;;;;16.38;100.00;99658.50;5008741;28;19909;-60
2023/08/03 09:50:02;;;;;;;;;;;;;;;16.45;100.00;99657.56;5008813;28;20115;-60
2023/08/03 09:52:28;;;;;;;;;;;;;;;16.58;100.00;99658.28;5008540;28;20361;-60
2023/08/03 09:55:00;;;;;;;;;;;;;;;16.66;100.00;99656.44;5008219;28;19924;-61
2023/08/03 09:57:28;;;;;;;;;;;;;;;16.73;100.00;99662.44;5008702;28;19909;-61
2023/08/03 09:59:58;;;;;;;;;;;;;;;16.79;100.00;99670.25;5008687;28;19913;-61
2023/08/03 10:02:26;;;;;;;;;;;;;;;16.85;100.00;99684.13;5008885;28;20375;-61
2023/08/03 10:04:55;;;;;;;;;;;;;;;16.82;100.00;99689.41;5010874;28;19913;-61
2023/08/03 10:07:22;;;;;;;;;;;;;;;16.90;100.00;99690.16;5015023;28;19919;-62
2023/08/03 10:09:50;;;;;;;;;;;;;;;16.96;100.00;99689.22;5015492;28;20423;-60
2023/08/03 10:12:20;;;;;;;;;;;;;;;17.09;100.00;99695.16;5015046;28;19921;-61
2023/08/03 10:14:47;;;;;;;;;;;;;;;17.25;100.00;99695.84;5014652;28;19967;-61
2023/08/03 10:17:13;;;;;;;;;;;;;;;17.32;100.00;99696.63;5014648;28;19953;-60
2023/08/03 10:19:39;;;;;;;;;;;;;;;17.39;100.00;99707.00;5015098;28;19917;-60
2023/08/03 10:22:08;;;;;;;;;;;;;;;17.45;100.00;99707.81;5014959;28;19913;-62
2023/08/03 10:24:34;;;;;;;;;;;;;;;17.54;100.00;99712.88;5014368;28;19920;-61
2023/08/03 10:27:19;;;;;;;;;;;;;;;17.63;100.00;99712.75;5015309;28;19909;-61
2023/08/03 10:29:51;;;;;;;;;;;;;;;17.79;100.00;99716.88;5014979;28;19917;-61
2023/08/03 10:32:21;;;;;;;;;;;;;;;17.94;100.00;99714.00;5015148;28;19909;-60
2023/08/03 10:34:47;;;;;;;;;;;;;;;18.11;100.00;99712.88;5014694;28;20358;-61
2023/08/03 10:37:12;;;;;;;;;;;;;;;18.22;100.00;99721.44;5015049;28;19917;-60
2023/08/03 10:39:48;;;;;;;;;;;;;;;18.28;100.00;99719.59;5014754;28;19913;-62
2023/08/03 10:42:27;;;;;;;;;;;;;;;18.38;100.00;99726.41;5014934;28;19983;-61
2023/08/03 10:44:53;;;;;;;;;;;;;;;18.54;100.00;99720.88;5014663;28;19916;-60
2023/08/03 10:47:24;;;;;;;;;;;;;;;18.69;100.00;99725.81;5015174;28;20317;-61
2023/08/03 10:49:50;;;;;;;;;;;;;;;18.72;100.00;99746.78;5014523;28;19963;-61
2023/08/03 10:52:18;;;;;;;;;;;;;;;18.64;100.00;99737.28;5013299;28;20015;-60
2023/08/03 10:54:43;;;;;;;;;;;;;;;18.57;100.00;99747.03;5014455;28;19909;-61
2023/08/03 10:57:09;;;;;;;;;;;;;;;18.43;100.00;99749.91;5014430;28;19955;-61
2023/08/03 10:59:35;;;;;;;;;;;;;;;18.28;100.00;99762.41;5014987;28;19917;-61
2023/08/03 11:02:07;;;;;;;;;;;;;;;18.37;100.00;99766.63;5014773;28;19933;-61
2023/08/03 11:04:32;;;;;;;;;;;;;;;18.43;100.00;99763.03;5014139;28;19913;-62
2023/08/03 11:06:58;;;;;;;;;;;;;;;18.51;100.00;99757.66;5014688;28;20051;-60
2023/08/03 11:09:24;;;;;;;;;;;;;;;18.50;100.00;99774.28;5014669;28;20424;-60
2023/08/03 11:11:49;;;;;;;;;;;;;;;18.54;100.00;99774.22;5014791;28;19910;-61
2023/08/03 11:14:15;;;;;;;;;;;;;;;18.50;100.00;99779.53;5014822;28;19948;-62
2023/08/03 11:16:41;;;;;;;;;;;;;;;18.46;100.00;99787.44;5011403;28;19963;-61
2023/08/03 11:19:06;;;;;;;;;;;;;;;18.36;100.00;99785.88;5011228;28;19959;-62
2023/08/03 11:21:32;;;;;;;;;;;;;;;18.24;100.00;99787.81;5011382;28;20397;-61
2023/08/03 11:23:57;;;;;;;;;;;;;;;18.21;100.00;99794.88;5011351;28;20279;-61
2023/08/03 11:26:23;;;;;;;;;;;;;;;18.20;100.00;99799.25;5011569;28;20001;-61
2023/08/03 11:28:48;;;;;;;;;;;;;;;18.17;100.00;99807.16;5010607;28;19983;-62
2023/08/03 11:31:14;;;;;;;;;;;;;;;18.10;100.00;99813.34;5011492;28;20305;-61
2023/08/03 11:33:39;;;;;;;;;;;;;;;17.98;100.00;99815.28;5011473;28;20377;-61
2023/08/03 11:36:05;;;;;;;;;;;;;;;17.89;100.00;99828.53;5011263;28;19992;-60
2023/08/03 11:38:30;;;;;;;;;;;;;;;17.76;100.00;99826.06;5010947;28;20368;-60
2023/08/03 11:40:55;;;;;;;;;;;;;;;17.69;100.00;99828.78;5011743;28;19964;-61
2023/08/03 11:43:21;;;;;;;;;;;;;;;17.65;100.00;99830.59;5011415;28;19948;-61
2023/08/03 11:45:46;;;;;;;;;;;;;;;17.64;100.00;99836.72;5011437;28;19976;-61
2023/08/03 11:48:11;;;;;;;;;;;;;;;17.59;100.00;99854.25;5011042;28;19909;-61
2023/08/03 11:50:36;;;;;;;;;;;;;;;17.58;100.00;99860.38;5010728;28;19914;-60
2023/08/03 11:53:01;;;;;;;;;;;;;;;17.63;100.00;99869.03;5010456;28;19913;-61
2023/08/03 11:55:28;;;;;;;;;;;;;;;17.68;100.00;99864.63;5010580;28;19913;-62
2023/08/03 11:58:10;;;;;;;;;;;;;;;17.77;100.00;99877.56;5010960;28;20023;-61
2023/08/03 12:00:36;;;;;;;;;;;;;;;17.93;100.00;99882.63;5010471;28;19913;-61
2023/08/03 12:03:01;;;;;;;;;;;;;;;18.03;100.00;99892.97;5010638;28;19917;-61
2023/08/03 12:05:26;;;;;;;;;;;;;;;18.08;100.00;99896.41;5010523;28;20413;-61
2023/08/03 12:07:55;;;;;;;;;;;;;;;18.06;100.00;99906.88;5010333;28;19910;-61
2023/08/03 12:10:20;;;;;;;;;;;;;;;18.08;100.00;99906.88;5010403;28;19913;-60
2023/08/03 12:12:45;;;;;;;;;;;;;;;18.09;100.00;99913.84;5010703;28;19914;-61
2023/08/03 12:15:11;;;;;;;;;;;;;;;18.09;100.00;99927.84;5010207;28;19917;-61
2023/08/03 12:17:36;;;;;;;;;;;;;;;18.05;100.00;99934.00;5010254;28;20004;-62
2023/08/03 12:20:02;;;;;;;;;;;;;;;18.07;100.00;99941.84;5010373;28;19920;-61
2023/08/03 12:22:27;;;;;;;;;;;;;;;18.10;100.00;99947.03;5010452;28;19944;-61
2023/08/03 12:24:52;;;;;;;;;;;;;;;18.09;100.00;99956.66;5009818;28;19924;-62
2023/08/03 12:27:17;;;;;;;;;;;;;;;18.07;100.00;99960.19;5009563;28;19952;-62
2023/08/03 12:29:42;;;;;;;;;;;;;;;18.04;100.00;99963.72;5010020;28;19913;-60